sensor_id;sensor_type;location;lat;lon;timestamp;P1;durP1;ratioP1;P2;durP2;ratioP2
57989;SDS011;58373;51.824;5.564;2022-10-30T00:00:35;21.27;;;9.35;;
57989;SDS011;58373;51.824;5.564;2022-10-30T00:03:00;14.57;;;8.65;;
57989;SDS011;58373;51.824;5.564;2022-10-30T00:05:26;18.38;;;9.68;;
57989;SDS011;58373;51.824;5.564;2022-10-30T00:07:53;17.95;;;8.98;;
57989;SDS011;58373;51.824;5.564;2022-10-30T00:10:19;14.75;;;7.93;;
57989;SDS011;58373;51.824;5.564;2022-10-30T00:12:44;18.65;;;9.40;;
57989;SDS011;58373;51.824;5.564;2022-10-30T00:15:10;17.42;;;7.50;;
57989;SDS011;58373;51.824;5.564;2022-10-30T00:17:36;18.30;;;9.40;;
57989;SDS011;58373;51.824;5.564;2022-10-30T00:20:01;14.88;;;8.07;;
57989;SDS011;58373;51.824;5.564;2022-10-30T00:22:27;16.95;;;10.13;;
57989;SDS011;58373;51.824;5.564;2022-10-30T00:24:52;12.32;;;7.72;;
57989;SDS011;58373;51.824;5.564;2022-10-30T00:27:17;17.08;;;10.00;;
57989;SDS011;58373;51.824;5.564;2022-10-30T00:29:43;19.73;;;10.02;;
57989;SDS011;58373;51.824;5.564;2022-10-30T00:32:08;19.35;;;7.93;;
57989;SDS011;58373;51.824;5.564;2022-10-30T00:34:34;16.55;;;9.18;;
57989;SDS011;58373;51.824;5.564;2022-10-30T00:36:59;13.57;;;9.68;;
57989;SDS011;58373;51.824;5.564;2022-10-30T00:39:24;19.23;;;9.38;;
57989;SDS011;58373;51.824;5.564;2022-10-30T00:41:50;14.68;;;8.57;;
57989;SDS011;58373;51.824;5.564;2022-10-30T00:44:31;18.13;;;9.70;;
57989;SDS011;58373;51.824;5.564;2022-10-30T00:46:56;13.57;;;8.35;;
57989;SDS011;58373;51.824;5.564;2022-10-30T00:49:28;16.38;;;10.77;;
57989;SDS011;58373;51.824;5.564;2022-10-30T00:51:59;16.17;;;8.88;;
57989;SDS011;58373;51.824;5.564;2022-10-30T00:54:27;17.07;;;10.83;;
57989;SDS011;58373;51.824;5.564;2022-10-30T00:56:53;14.88;;;8.93;;
57989;SDS011;58373;51.824;5.564;2022-10-30T00:59:23;16.23;;;7.85;;
57989;SDS011;58373;51.824;5.564;2022-10-30T01:01:52;14.85;;;9.23;;
57989;SDS011;58373;51.824;5.564;2022-10-30T01:04:18;13.68;;;9.35;;
57989;SDS011;58373;51.824;5.564;2022-10-30T01:06:45;17.20;;;9.20;;
57989;SDS011;58373;51.824;5.564;2022-10-30T01:09:16;16.10;;;7.75;;
57989;SDS011;58373;51.824;5.564;2022-10-30T01:11:42;14.93;;;7.82;;
57989;SDS011;58373;51.824;5.564;2022-10-30T01:14:08;17.65;;;9.63;;
57989;SDS011;58373;51.824;5.564;2022-10-30T01:33:02;20.15;;;9.77;;
57989;SDS011;58373;51.824;5.564;2022-10-30T01:35:41;16.30;;;8.88;;
57989;SDS011;58373;51.824;5.564;2022-10-30T01:38:14;16.60;;;10.65;;
57989;SDS011;58373;51.824;5.564;2022-10-30T01:40:46;15.57;;;8.43;;
57989;SDS011;58373;51.824;5.564;2022-10-30T01:43:11;14.15;;;8.13;;
57989;SDS011;58373;51.824;5.564;2022-10-30T01:45:50;15.18;;;9.60;;
57989;SDS011;58373;51.824;5.564;2022-10-30T01:49:22;13.65;;;8.35;;
57989;SDS011;58373;51.824;5.564;2022-10-30T01:51:42;17.90;;;8.95;;
57989;SDS011;58373;51.824;5.564;2022-10-30T01:56:56;17.50;;;10.32;;
57989;SDS011;58373;51.824;5.564;2022-10-30T02:02:03;17.27;;;8.45;;
57989;SDS011;58373;51.824;5.564;2022-10-30T02:04:28;14.10;;;8.93;;
57989;SDS011;58373;51.824;5.564;2022-10-30T02:06:55;16.67;;;9.70;;
57989;SDS011;58373;51.824;5.564;2022-10-30T02:09:20;14.77;;;10.25;;
57989;SDS011;58373;51.824;5.564;2022-10-30T02:11:46;14.05;;;7.97;;
57989;SDS011;58373;51.824;5.564;2022-10-30T02:14:15;14.13;;;7.43;;
57989;SDS011;58373;51.824;5.564;2022-10-30T02:16:53;15.27;;;8.35;;
57989;SDS011;58373;51.824;5.564;2022-10-30T02:19:22;17.08;;;10.18;;
57989;SDS011;58373;51.824;5.564;2022-10-30T02:21:48;15.82;;;7.70;;
57989;SDS011;58373;51.824;5.564;2022-10-30T02:24:14;16.60;;;9.27;;
57989;SDS011;58373;51.824;5.564;2022-10-30T02:26:40;13.63;;;7.75;;
57989;SDS011;58373;51.824;5.564;2022-10-30T02:29:05;18.73;;;8.73;;
57989;SDS011;58373;51.824;5.564;2022-10-30T02:31:31;15.98;;;9.93;;
57989;SDS011;58373;51.824;5.564;2022-10-30T02:33:56;15.50;;;8.18;;
57989;SDS011;58373;51.824;5.564;2022-10-30T02:36:21;14.32;;;8.73;;
57989;SDS011;58373;51.824;5.564;2022-10-30T02:38:46;14.95;;;8.98;;
57989;SDS011;58373;51.824;5.564;2022-10-30T02:41:12;13.85;;;7.80;;
57989;SDS011;58373;51.824;5.564;2022-10-30T02:43:38;16.42;;;9.65;;
57989;SDS011;58373;51.824;5.564;2022-10-30T02:46:03;15.30;;;8.35;;
57989;SDS011;58373;51.824;5.564;2022-10-30T02:48:29;16.73;;;10.13;;
57989;SDS011;58373;51.824;5.564;2022-10-30T02:50:58;13.20;;;7.70;;
57989;SDS011;58373;51.824;5.564;2022-10-30T02:53:25;16.00;;;7.95;;
57989;SDS011;58373;51.824;5.564;2022-10-30T02:55:50;21.05;;;11.98;;
57989;SDS011;58373;51.824;5.564;2022-10-30T02:58:15;14.77;;;8.18;;
57989;SDS011;58373;51.824;5.564;2022-10-30T03:00:41;20.83;;;11.18;;
57989;SDS011;58373;51.824;5.564;2022-10-30T03:03:06;17.67;;;9.50;;
57989;SDS011;58373;51.824;5.564;2022-10-30T03:05:31;17.17;;;9.60;;
57989;SDS011;58373;51.824;5.564;2022-10-30T03:07:57;19.75;;;9.50;;
57989;SDS011;58373;51.824;5.564;2022-10-30T03:10:22;14.60;;;8.35;;
57989;SDS011;58373;51.824;5.564;2022-10-30T03:12:47;17.90;;;8.45;;
57989;SDS011;58373;51.824;5.564;2022-10-30T03:15:13;16.95;;;10.15;;
57989;SDS011;58373;51.824;5.564;2022-10-30T03:17:38;19.92;;;9.27;;
57989;SDS011;58373;51.824;5.564;2022-10-30T03:20:04;16.30;;;10.55;;
57989;SDS011;58373;51.824;5.564;2022-10-30T03:22:29;15.88;;;8.25;;
57989;SDS011;58373;51.824;5.564;2022-10-30T03:24:55;14.77;;;9.55;;
57989;SDS011;58373;51.824;5.564;2022-10-30T03:27:20;17.20;;;8.98;;
57989;SDS011;58373;51.824;5.564;2022-10-30T03:29:45;18.77;;;9.68;;
57989;SDS011;58373;51.824;5.564;2022-10-30T03:32:11;16.15;;;9.48;;
57989;SDS011;58373;51.824;5.564;2022-10-30T03:34:37;17.25;;;8.90;;
57989;SDS011;58373;51.824;5.564;2022-10-30T03:37:02;17.55;;;9.07;;
57989;SDS011;58373;51.824;5.564;2022-10-30T03:39:29;16.17;;;9.18;;
57989;SDS011;58373;51.824;5.564;2022-10-30T03:41:54;14.75;;;8.90;;
57989;SDS011;58373;51.824;5.564;2022-10-30T03:44:19;14.52;;;8.60;;
57989;SDS011;58373;51.824;5.564;2022-10-30T03:46:45;19.33;;;9.20;;
57989;SDS011;58373;51.824;5.564;2022-10-30T03:49:10;16.15;;;10.35;;
57989;SDS011;58373;51.824;5.564;2022-10-30T03:51:35;17.52;;;11.13;;
57989;SDS011;58373;51.824;5.564;2022-10-30T03:54:01;17.70;;;9.82;;
57989;SDS011;58373;51.824;5.564;2022-10-30T03:56:26;16.63;;;9.32;;
57989;SDS011;58373;51.824;5.564;2022-10-30T03:58:51;15.77;;;9.70;;
57989;SDS011;58373;51.824;5.564;2022-10-30T04:01:17;16.50;;;8.73;;
57989;SDS011;58373;51.824;5.564;2022-10-30T04:03:42;18.70;;;10.75;;
57989;SDS011;58373;51.824;5.564;2022-10-30T04:06:08;13.52;;;8.45;;
57989;SDS011;58373;51.824;5.564;2022-10-30T04:08:33;17.90;;;10.10;;
57989;SDS011;58373;51.824;5.564;2022-10-30T04:10:59;17.00;;;9.57;;
57989;SDS011;58373;51.824;5.564;2022-10-30T04:13:24;16.85;;;8.40;;
57989;SDS011;58373;51.824;5.564;2022-10-30T04:15:50;16.92;;;8.43;;
57989;SDS011;58373;51.824;5.564;2022-10-30T04:18:15;17.92;;;8.88;;
57989;SDS011;58373;51.824;5.564;2022-10-30T04:20:41;17.30;;;9.82;;
57989;SDS011;58373;51.824;5.564;2022-10-30T04:23:09;16.92;;;8.20;;
57989;SDS011;58373;51.824;5.564;2022-10-30T04:25:38;16.88;;;9.23;;
57989;SDS011;58373;51.824;5.564;2022-10-30T04:28:04;18.67;;;9.98;;
57989;SDS011;58373;51.824;5.564;2022-10-30T04:30:30;15.68;;;8.65;;
57989;SDS011;58373;51.824;5.564;2022-10-30T04:32:59;15.10;;;10.95;;
57989;SDS011;58373;51.824;5.564;2022-10-30T04:35:26;16.58;;;8.30;;
57989;SDS011;58373;51.824;5.564;2022-10-30T04:37:54;15.43;;;10.13;;
57989;SDS011;58373;51.824;5.564;2022-10-30T04:40:21;17.52;;;10.40;;
57989;SDS011;58373;51.824;5.564;2022-10-30T04:42:48;19.60;;;10.75;;
57989;SDS011;58373;51.824;5.564;2022-10-30T04:45:14;15.15;;;9.65;;
57989;SDS011;58373;51.824;5.564;2022-10-30T04:47:40;18.80;;;8.95;;
57989;SDS011;58373;51.824;5.564;2022-10-30T04:50:05;16.77;;;9.30;;
57989;SDS011;58373;51.824;5.564;2022-10-30T04:52:31;17.67;;;9.90;;
57989;SDS011;58373;51.824;5.564;2022-10-30T04:54:57;13.82;;;9.25;;
57989;SDS011;58373;51.824;5.564;2022-10-30T04:57:22;16.85;;;10.55;;
57989;SDS011;58373;51.824;5.564;2022-10-30T04:59:47;18.40;;;7.65;;
57989;SDS011;58373;51.824;5.564;2022-10-30T05:02:13;18.83;;;8.80;;
57989;SDS011;58373;51.824;5.564;2022-10-30T05:04:38;14.50;;;9.10;;
57989;SDS011;58373;51.824;5.564;2022-10-30T05:07:03;15.88;;;8.60;;
57989;SDS011;58373;51.824;5.564;2022-10-30T05:09:29;13.73;;;9.18;;
57989;SDS011;58373;51.824;5.564;2022-10-30T05:11:54;14.18;;;8.25;;
57989;SDS011;58373;51.824;5.564;2022-10-30T05:14:20;16.75;;;9.05;;
57989;SDS011;58373;51.824;5.564;2022-10-30T05:16:45;18.45;;;8.73;;
57989;SDS011;58373;51.824;5.564;2022-10-30T05:19:10;18.42;;;8.35;;
57989;SDS011;58373;51.824;5.564;2022-10-30T05:21:36;15.75;;;8.65;;
57989;SDS011;58373;51.824;5.564;2022-10-30T05:24:01;17.55;;;8.82;;
57989;SDS011;58373;51.824;5.564;2022-10-30T05:26:27;13.85;;;8.85;;
57989;SDS011;58373;51.824;5.564;2022-10-30T05:28:52;15.30;;;8.82;;
57989;SDS011;58373;51.824;5.564;2022-10-30T05:31:17;12.38;;;8.30;;
57989;SDS011;58373;51.824;5.564;2022-10-30T05:33:43;18.73;;;9.00;;
57989;SDS011;58373;51.824;5.564;2022-10-30T05:36:08;13.40;;;7.88;;
57989;SDS011;58373;51.824;5.564;2022-10-30T05:38:33;14.07;;;8.25;;
57989;SDS011;58373;51.824;5.564;2022-10-30T05:40:59;14.77;;;8.02;;
57989;SDS011;58373;51.824;5.564;2022-10-30T05:43:24;17.77;;;9.13;;
57989;SDS011;58373;51.824;5.564;2022-10-30T05:45:49;15.90;;;12.38;;
57989;SDS011;58373;51.824;5.564;2022-10-30T05:48:15;16.45;;;8.27;;
57989;SDS011;58373;51.824;5.564;2022-10-30T05:50:40;14.65;;;9.07;;
57989;SDS011;58373;51.824;5.564;2022-10-30T05:53:06;14.90;;;7.43;;
57989;SDS011;58373;51.824;5.564;2022-10-30T05:55:31;15.65;;;8.00;;
57989;SDS011;58373;51.824;5.564;2022-10-30T05:58:01;19.05;;;8.95;;
57989;SDS011;58373;51.824;5.564;2022-10-30T06:00:28;14.45;;;8.20;;
57989;SDS011;58373;51.824;5.564;2022-10-30T06:03:02;14.88;;;9.27;;
57989;SDS011;58373;51.824;5.564;2022-10-30T06:05:29;15.75;;;8.75;;
57989;SDS011;58373;51.824;5.564;2022-10-30T06:07:56;14.20;;;8.50;;
57989;SDS011;58373;51.824;5.564;2022-10-30T06:10:22;16.17;;;8.60;;
57989;SDS011;58373;51.824;5.564;2022-10-30T06:12:51;16.83;;;8.35;;
57989;SDS011;58373;51.824;5.564;2022-10-30T06:15:24;16.15;;;8.15;;
57989;SDS011;58373;51.824;5.564;2022-10-30T06:17:50;16.13;;;8.57;;
57989;SDS011;58373;51.824;5.564;2022-10-30T06:20:16;13.57;;;8.68;;
57989;SDS011;58373;51.824;5.564;2022-10-30T06:22:52;13.13;;;8.07;;
57989;SDS011;58373;51.824;5.564;2022-10-30T06:25:18;15.77;;;9.55;;
57989;SDS011;58373;51.824;5.564;2022-10-30T06:27:43;18.38;;;9.77;;
57989;SDS011;58373;51.824;5.564;2022-10-30T06:30:09;20.67;;;9.10;;
57989;SDS011;58373;51.824;5.564;2022-10-30T06:32:34;16.88;;;8.32;;
57989;SDS011;58373;51.824;5.564;2022-10-30T06:35:00;20.35;;;8.68;;
57989;SDS011;58373;51.824;5.564;2022-10-30T06:37:25;13.68;;;7.70;;
57989;SDS011;58373;51.824;5.564;2022-10-30T06:39:50;17.35;;;8.65;;
57989;SDS011;58373;51.824;5.564;2022-10-30T06:42:16;11.15;;;7.13;;
57989;SDS011;58373;51.824;5.564;2022-10-30T06:44:41;15.45;;;8.52;;
57989;SDS011;58373;51.824;5.564;2022-10-30T06:47:06;18.73;;;8.80;;
57989;SDS011;58373;51.824;5.564;2022-10-30T06:49:32;17.85;;;8.43;;
57989;SDS011;58373;51.824;5.564;2022-10-30T06:51:57;24.27;;;8.52;;
57989;SDS011;58373;51.824;5.564;2022-10-30T06:54:22;13.65;;;7.97;;
57989;SDS011;58373;51.824;5.564;2022-10-30T06:56:48;19.92;;;8.93;;
57989;SDS011;58373;51.824;5.564;2022-10-30T06:59:14;14.27;;;8.32;;
57989;SDS011;58373;51.824;5.564;2022-10-30T07:01:40;19.85;;;9.15;;
57989;SDS011;58373;51.824;5.564;2022-10-30T07:04:05;16.30;;;9.18;;
57989;SDS011;58373;51.824;5.564;2022-10-30T07:06:30;18.05;;;8.70;;
57989;SDS011;58373;51.824;5.564;2022-10-30T07:08:56;15.00;;;8.63;;
57989;SDS011;58373;51.824;5.564;2022-10-30T07:11:21;14.45;;;9.20;;
57989;SDS011;58373;51.824;5.564;2022-10-30T07:13:46;13.25;;;7.57;;
57989;SDS011;58373;51.824;5.564;2022-10-30T07:16:12;15.07;;;8.32;;
57989;SDS011;58373;51.824;5.564;2022-10-30T07:18:37;16.17;;;8.70;;
57989;SDS011;58373;51.824;5.564;2022-10-30T07:21:02;15.80;;;8.25;;
57989;SDS011;58373;51.824;5.564;2022-10-30T07:23:28;16.45;;;8.88;;
57989;SDS011;58373;51.824;5.564;2022-10-30T07:25:53;13.95;;;8.25;;
57989;SDS011;58373;51.824;5.564;2022-10-30T07:28:18;15.70;;;9.32;;
57989;SDS011;58373;51.824;5.564;2022-10-30T07:30:44;17.45;;;8.02;;
57989;SDS011;58373;51.824;5.564;2022-10-30T07:33:09;20.50;;;9.05;;
57989;SDS011;58373;51.824;5.564;2022-10-30T07:35:34;19.50;;;9.48;;
57989;SDS011;58373;51.824;5.564;2022-10-30T07:38:04;15.75;;;8.90;;
57989;SDS011;58373;51.824;5.564;2022-10-30T07:40:31;12.85;;;7.97;;
57989;SDS011;58373;51.824;5.564;2022-10-30T07:42:57;12.75;;;8.63;;
57989;SDS011;58373;51.824;5.564;2022-10-30T07:45:24;21.00;;;9.15;;
57989;SDS011;58373;51.824;5.564;2022-10-30T07:47:50;17.13;;;8.82;;
57989;SDS011;58373;51.824;5.564;2022-10-30T07:50:16;15.50;;;8.90;;
57989;SDS011;58373;51.824;5.564;2022-10-30T07:52:41;18.98;;;9.45;;
57989;SDS011;58373;51.824;5.564;2022-10-30T07:55:06;17.17;;;9.32;;
57989;SDS011;58373;51.824;5.564;2022-10-30T07:57:36;15.52;;;9.25;;
57989;SDS011;58373;51.824;5.564;2022-10-30T08:00:03;15.30;;;9.13;;
57989;SDS011;58373;51.824;5.564;2022-10-30T08:02:29;19.55;;;10.43;;
57989;SDS011;58373;51.824;5.564;2022-10-30T08:04:55;15.65;;;10.32;;
57989;SDS011;58373;51.824;5.564;2022-10-30T08:07:20;20.15;;;9.05;;
57989;SDS011;58373;51.824;5.564;2022-10-30T08:09:45;20.08;;;10.30;;
57989;SDS011;58373;51.824;5.564;2022-10-30T08:12:11;20.80;;;10.10;;
57989;SDS011;58373;51.824;5.564;2022-10-30T08:14:37;15.50;;;9.82;;
57989;SDS011;58373;51.824;5.564;2022-10-30T08:17:02;18.45;;;10.57;;
57989;SDS011;58373;51.824;5.564;2022-10-30T08:19:29;20.92;;;11.98;;
57989;SDS011;58373;51.824;5.564;2022-10-30T08:21:54;18.67;;;10.55;;
57989;SDS011;58373;51.824;5.564;2022-10-30T08:24:20;17.77;;;10.82;;
57989;SDS011;58373;51.824;5.564;2022-10-30T08:26:46;16.75;;;10.90;;
57989;SDS011;58373;51.824;5.564;2022-10-30T08:29:11;17.13;;;10.63;;
57989;SDS011;58373;51.824;5.564;2022-10-30T08:31:37;19.90;;;9.77;;
57989;SDS011;58373;51.824;5.564;2022-10-30T08:34:02;17.02;;;10.57;;
57989;SDS011;58373;51.824;5.564;2022-10-30T08:36:29;17.20;;;11.18;;
57989;SDS011;58373;51.824;5.564;2022-10-30T08:38:54;18.70;;;11.02;;
57989;SDS011;58373;51.824;5.564;2022-10-30T08:41:20;17.10;;;10.48;;
57989;SDS011;58373;51.824;5.564;2022-10-30T08:43:45;21.27;;;11.02;;
57989;SDS011;58373;51.824;5.564;2022-10-30T08:46:12;18.17;;;11.55;;
57989;SDS011;58373;51.824;5.564;2022-10-30T08:48:37;16.83;;;11.43;;
57989;SDS011;58373;51.824;5.564;2022-10-30T08:51:02;17.75;;;12.27;;
57989;SDS011;58373;51.824;5.564;2022-10-30T08:53:28;21.65;;;13.35;;
57989;SDS011;58373;51.824;5.564;2022-10-30T08:55:53;17.58;;;12.88;;
57989;SDS011;58373;51.824;5.564;2022-10-30T08:58:18;19.63;;;11.73;;
57989;SDS011;58373;51.824;5.564;2022-10-30T09:00:44;16.60;;;12.68;;
57989;SDS011;58373;51.824;5.564;2022-10-30T09:03:09;21.20;;;12.25;;
57989;SDS011;58373;51.824;5.564;2022-10-30T09:05:37;20.75;;;11.57;;
57989;SDS011;58373;51.824;5.564;2022-10-30T09:08:03;20.27;;;12.32;;
57989;SDS011;58373;51.824;5.564;2022-10-30T09:10:28;21.15;;;14.98;;
57989;SDS011;58373;51.824;5.564;2022-10-30T09:12:54;16.98;;;13.23;;
57989;SDS011;58373;51.824;5.564;2022-10-30T09:15:21;16.90;;;12.52;;
57989;SDS011;58373;51.824;5.564;2022-10-30T09:17:46;18.20;;;13.10;;
57989;SDS011;58373;51.824;5.564;2022-10-30T09:20:12;18.30;;;13.35;;
57989;SDS011;58373;51.824;5.564;2022-10-30T09:22:40;18.08;;;12.77;;
57989;SDS011;58373;51.824;5.564;2022-10-30T09:25:06;23.30;;;12.45;;
57989;SDS011;58373;51.824;5.564;2022-10-30T09:27:35;24.33;;;13.85;;
57989;SDS011;58373;51.824;5.564;2022-10-30T09:30:02;19.98;;;17.02;;
57989;SDS011;58373;51.824;5.564;2022-10-30T09:32:27;20.42;;;11.98;;
57989;SDS011;58373;51.824;5.564;2022-10-30T09:34:53;21.77;;;15.20;;
57989;SDS011;58373;51.824;5.564;2022-10-30T09:37:18;22.30;;;16.40;;
57989;SDS011;58373;51.824;5.564;2022-10-30T09:39:43;22.83;;;14.55;;
57989;SDS011;58373;51.824;5.564;2022-10-30T09:44:40;24.52;;;16.60;;
57989;SDS011;58373;51.824;5.564;2022-10-30T09:47:18;23.45;;;16.48;;
57989;SDS011;58373;51.824;5.564;2022-10-30T09:50:02;20.95;;;13.15;;
57989;SDS011;58373;51.824;5.564;2022-10-30T10:01:21;23.10;;;14.63;;
57989;SDS011;58373;51.824;5.564;2022-10-30T10:04:04;25.85;;;19.25;;
57989;SDS011;58373;51.824;5.564;2022-10-30T10:07:00;25.25;;;18.75;;
57989;SDS011;58373;51.824;5.564;2022-10-30T10:09:28;23.42;;;18.40;;
57989;SDS011;58373;51.824;5.564;2022-10-30T10:12:02;20.55;;;13.55;;
57989;SDS011;58373;51.824;5.564;2022-10-30T10:14:39;23.83;;;19.20;;
57989;SDS011;58373;51.824;5.564;2022-10-30T10:17:12;24.13;;;18.63;;
57989;SDS011;58373;51.824;5.564;2022-10-30T10:19:49;24.48;;;19.00;;
57989;SDS011;58373;51.824;5.564;2022-10-30T10:23:09;23.27;;;19.65;;
57989;SDS011;58373;51.824;5.564;2022-10-30T10:25:12;26.45;;;18.98;;
57989;SDS011;58373;51.824;5.564;2022-10-30T10:30:41;23.73;;;18.77;;
57989;SDS011;58373;51.824;5.564;2022-10-30T10:42:05;23.17;;;18.15;;
57989;SDS011;58373;51.824;5.564;2022-10-30T10:47:30;20.67;;;15.98;;
57989;SDS011;58373;51.824;5.564;2022-10-30T10:50:02;22.92;;;15.82;;
57989;SDS011;58373;51.824;5.564;2022-10-30T10:55:20;23.83;;;15.38;;
57989;SDS011;58373;51.824;5.564;2022-10-30T10:57:50;24.17;;;15.65;;
57989;SDS011;58373;51.824;5.564;2022-10-30T11:00:21;19.55;;;15.38;;
57989;SDS011;58373;51.824;5.564;2022-10-30T11:02:55;20.23;;;14.25;;
57989;SDS011;58373;51.824;5.564;2022-10-30T11:05:40;20.60;;;13.30;;
57989;SDS011;58373;51.824;5.564;2022-10-30T11:08:28;20.60;;;13.98;;
57989;SDS011;58373;51.824;5.564;2022-10-30T11:11:05;18.25;;;12.70;;
57989;SDS011;58373;51.824;5.564;2022-10-30T11:13:35;23.05;;;14.10;;
57989;SDS011;58373;51.824;5.564;2022-10-30T11:18:40;21.67;;;13.20;;
57989;SDS011;58373;51.824;5.564;2022-10-30T11:21:08;18.80;;;13.35;;
57989;SDS011;58373;51.824;5.564;2022-10-30T11:23:40;19.50;;;13.60;;
57989;SDS011;58373;51.824;5.564;2022-10-30T11:34:11;19.00;;;12.95;;
57989;SDS011;58373;51.824;5.564;2022-10-30T11:36:38;18.38;;;12.85;;
57989;SDS011;58373;51.824;5.564;2022-10-30T11:39:15;20.33;;;12.95;;
57989;SDS011;58373;51.824;5.564;2022-10-30T11:41:54;18.92;;;12.95;;
57989;SDS011;58373;51.824;5.564;2022-10-30T11:44:22;20.38;;;13.27;;
57989;SDS011;58373;51.824;5.564;2022-10-30T11:46:51;17.85;;;12.45;;
57989;SDS011;58373;51.824;5.564;2022-10-30T11:52:12;22.30;;;12.38;;
57989;SDS011;58373;51.824;5.564;2022-10-30T11:54:41;17.95;;;12.43;;
57989;SDS011;58373;51.824;5.564;2022-10-30T11:59:59;19.07;;;11.83;;
57989;SDS011;58373;51.824;5.564;2022-10-30T12:02:31;17.52;;;12.82;;
57989;SDS011;58373;51.824;5.564;2022-10-30T12:08:37;17.65;;;12.25;;
57989;SDS011;58373;51.824;5.564;2022-10-30T12:10:47;19.52;;;12.30;;
57989;SDS011;58373;51.824;5.564;2022-10-30T12:13:20;19.23;;;11.95;;
57989;SDS011;58373;51.824;5.564;2022-10-30T12:15:48;21.90;;;11.48;;
57989;SDS011;58373;51.824;5.564;2022-10-30T12:18:27;18.17;;;12.02;;
57989;SDS011;58373;51.824;5.564;2022-10-30T12:20:54;20.20;;;11.65;;
57989;SDS011;58373;51.824;5.564;2022-10-30T12:25:51;18.35;;;11.82;;
57989;SDS011;58373;51.824;5.564;2022-10-30T12:28:22;19.23;;;11.52;;
57989;SDS011;58373;51.824;5.564;2022-10-30T12:33:23;17.98;;;11.27;;
57989;SDS011;58373;51.824;5.564;2022-10-30T12:35:57;18.55;;;11.30;;
57989;SDS011;58373;51.824;5.564;2022-10-30T12:38:28;14.93;;;10.95;;
57989;SDS011;58373;51.824;5.564;2022-10-30T12:54:32;17.40;;;10.40;;
57989;SDS011;58373;51.824;5.564;2022-10-30T12:57:23;19.08;;;10.60;;
57989;SDS011;58373;51.824;5.564;2022-10-30T13:10:47;19.92;;;9.55;;
57989;SDS011;58373;51.824;5.564;2022-10-30T13:13:35;18.38;;;9.73;;
57989;SDS011;58373;51.824;5.564;2022-10-30T13:18:38;17.77;;;9.80;;
57989;SDS011;58373;51.824;5.564;2022-10-30T13:23:41;19.17;;;13.85;;
57989;SDS011;58373;51.824;5.564;2022-10-30T13:35:08;20.98;;;14.60;;
57989;SDS011;58373;51.824;5.564;2022-10-30T13:40:50;26.60;;;16.40;;
57989;SDS011;58373;51.824;5.564;2022-10-30T13:46:16;19.98;;;12.18;;
57989;SDS011;58373;51.824;5.564;2022-10-30T13:48:56;17.73;;;11.23;;
57989;SDS011;58373;51.824;5.564;2022-10-30T13:57:54;20.38;;;11.50;;
57989;SDS011;58373;51.824;5.564;2022-10-30T14:00:22;16.38;;;10.30;;
57989;SDS011;58373;51.824;5.564;2022-10-30T14:05:47;17.57;;;10.37;;
57989;SDS011;58373;51.824;5.564;2022-10-30T14:10:54;17.00;;;10.80;;
57989;SDS011;58373;51.824;5.564;2022-10-30T14:24:12;17.52;;;12.40;;
57989;SDS011;58373;51.824;5.564;2022-10-30T14:26:38;17.05;;;12.23;;
57989;SDS011;58373;51.824;5.564;2022-10-30T14:32:00;21.25;;;11.80;;
57989;SDS011;58373;51.824;5.564;2022-10-30T14:37:14;16.13;;;10.00;;
57989;SDS011;58373;51.824;5.564;2022-10-30T14:39:43;15.90;;;10.35;;
57989;SDS011;58373;51.824;5.564;2022-10-30T14:42:11;18.00;;;9.88;;
57989;SDS011;58373;51.824;5.564;2022-10-30T14:50:15;15.25;;;9.15;;
57989;SDS011;58373;51.824;5.564;2022-10-30T14:55:29;15.00;;;8.32;;
57989;SDS011;58373;51.824;5.564;2022-10-30T15:14:17;16.33;;;8.40;;
57989;SDS011;58373;51.824;5.564;2022-10-30T15:17:10;16.25;;;8.63;;
57989;SDS011;58373;51.824;5.564;2022-10-30T15:19:43;16.23;;;8.80;;
57989;SDS011;58373;51.824;5.564;2022-10-30T15:22:09;13.77;;;8.52;;
57989;SDS011;58373;51.824;5.564;2022-10-30T15:24:44;15.02;;;8.35;;
57989;SDS011;58373;51.824;5.564;2022-10-30T15:27:13;15.55;;;8.50;;
57989;SDS011;58373;51.824;5.564;2022-10-30T15:29:43;15.57;;;8.50;;
57989;SDS011;58373;51.824;5.564;2022-10-30T15:32:17;15.68;;;7.72;;
57989;SDS011;58373;51.824;5.564;2022-10-30T15:34:52;14.23;;;8.05;;
57989;SDS011;58373;51.824;5.564;2022-10-30T15:37:24;17.38;;;8.25;;
57989;SDS011;58373;51.824;5.564;2022-10-30T15:40:07;15.18;;;9.20;;
57989;SDS011;58373;51.824;5.564;2022-10-30T15:42:34;15.68;;;8.57;;
57989;SDS011;58373;51.824;5.564;2022-10-30T15:44:59;16.10;;;9.15;;
57989;SDS011;58373;51.824;5.564;2022-10-30T15:47:26;16.55;;;9.45;;
57989;SDS011;58373;51.824;5.564;2022-10-30T15:49:53;16.33;;;8.95;;
57989;SDS011;58373;51.824;5.564;2022-10-30T15:52:20;16.27;;;9.00;;
57989;SDS011;58373;51.824;5.564;2022-10-30T15:55:04;15.27;;;9.05;;
57989;SDS011;58373;51.824;5.564;2022-10-30T15:57:50;15.82;;;9.13;;
57989;SDS011;58373;51.824;5.564;2022-10-30T16:00:21;18.38;;;10.30;;
57989;SDS011;58373;51.824;5.564;2022-10-30T16:02:59;18.40;;;9.82;;
57989;SDS011;58373;51.824;5.564;2022-10-30T16:05:25;15.73;;;10.50;;
57989;SDS011;58373;51.824;5.564;2022-10-30T16:07:53;20.30;;;11.35;;
57989;SDS011;58373;51.824;5.564;2022-10-30T16:10:21;16.45;;;10.98;;
57989;SDS011;58373;51.824;5.564;2022-10-30T16:12:47;20.33;;;11.70;;
57989;SDS011;58373;51.824;5.564;2022-10-30T16:18:00;18.60;;;11.40;;
57989;SDS011;58373;51.824;5.564;2022-10-30T16:20:41;20.88;;;13.20;;
57989;SDS011;58373;51.824;5.564;2022-10-30T16:23:09;19.83;;;13.32;;
57989;SDS011;58373;51.824;5.564;2022-10-30T16:25:36;19.52;;;13.63;;
57989;SDS011;58373;51.824;5.564;2022-10-30T16:28:03;16.42;;;11.30;;
57989;SDS011;58373;51.824;5.564;2022-10-30T16:30:30;16.45;;;9.88;;
57989;SDS011;58373;51.824;5.564;2022-10-30T16:35:23;19.95;;;10.27;;
57989;SDS011;58373;51.824;5.564;2022-10-30T16:37:50;13.90;;;9.07;;
57989;SDS011;58373;51.824;5.564;2022-10-30T16:40:18;15.57;;;9.00;;
57989;SDS011;58373;51.824;5.564;2022-10-30T16:42:53;14.65;;;9.18;;
57989;SDS011;58373;51.824;5.564;2022-10-30T16:47:51;15.65;;;9.68;;
57989;SDS011;58373;51.824;5.564;2022-10-30T16:53:03;14.95;;;9.43;;
57989;SDS011;58373;51.824;5.564;2022-10-30T16:55:35;16.38;;;9.35;;
57989;SDS011;58373;51.824;5.564;2022-10-30T16:58:02;14.52;;;9.25;;
57989;SDS011;58373;51.824;5.564;2022-10-30T17:00:28;15.52;;;8.57;;
57989;SDS011;58373;51.824;5.564;2022-10-30T17:02:55;11.93;;;8.35;;
57989;SDS011;58373;51.824;5.564;2022-10-30T17:05:24;12.65;;;8.13;;
57989;SDS011;58373;51.824;5.564;2022-10-30T17:07:55;12.57;;;7.70;;
57989;SDS011;58373;51.824;5.564;2022-10-30T17:10:32;13.63;;;7.35;;
57989;SDS011;58373;51.824;5.564;2022-10-30T17:15:56;14.45;;;7.45;;
57989;SDS011;58373;51.824;5.564;2022-10-30T17:18:29;11.68;;;7.53;;
57989;SDS011;58373;51.824;5.564;2022-10-30T17:21:14;13.93;;;8.00;;
57989;SDS011;58373;51.824;5.564;2022-10-30T17:23:45;13.15;;;7.00;;
57989;SDS011;58373;51.824;5.564;2022-10-30T17:26:19;11.57;;;7.03;;
57989;SDS011;58373;51.824;5.564;2022-10-30T17:28:45;11.40;;;6.60;;
57989;SDS011;58373;51.824;5.564;2022-10-30T17:33:43;9.70;;;6.20;;
57989;SDS011;58373;51.824;5.564;2022-10-30T17:36:09;9.45;;;5.93;;
57989;SDS011;58373;51.824;5.564;2022-10-30T17:38:35;11.48;;;6.70;;
57989;SDS011;58373;51.824;5.564;2022-10-30T17:41:01;11.27;;;5.90;;
57989;SDS011;58373;51.824;5.564;2022-10-30T17:43:28;12.13;;;6.40;;